Nagano, Japan
Current Conditions -  °F | °C
As of 2:00 PM on Tuesday 21 Oct 2014 (Local Time) from RJNT Reporting Station
Rain Showers Rain Showers  
Wind Chill: 70°   Ceiling: 5000
Heat Index: 70°   Visibility: 6mi
Dew Point: 59°   Wind: 9mph
Humidity: 68%   Direction: 170°S
Pressure: 29.91"   Gusts: NA
Location:  36.65°N, 138.18°E
Report Text: RJNT 210500Z 17008KT 120V200 9999 -SHRA FEW005 BKN050 BKN070 21/15 Q1013
Loading
Personal Weather Stations






























Interactive Weather Map New forecast layout! Learn more

10-Day Weather Forecast

Advertisements
Track Severe Weather on mobile